sensor_id;sensor_type;location;lat;lon;timestamp;P1;durP1;ratioP1;P2;durP2;ratioP2
49340;SDS011;35209;51.050;13.678;2023-04-01T00:03:59;1.65;;;0.70;;
49340;SDS011;35209;51.050;13.678;2023-04-01T00:09:03;2.92;;;0.70;;
49340;SDS011;35209;51.050;13.678;2023-04-01T00:14:06;2.40;;;0.88;;
49340;SDS011;35209;51.050;13.678;2023-04-01T00:19:08;1.70;;;0.50;;
49340;SDS011;35209;51.050;13.678;2023-04-01T00:24:10;1.38;;;0.63;;
49340;SDS011;35209;51.050;13.678;2023-04-01T00:29:12;2.13;;;0.65;;
49340;SDS011;35209;51.050;13.678;2023-04-01T00:34:14;2.38;;;0.50;;
49340;SDS011;35209;51.050;13.678;2023-04-01T00:39:16;1.80;;;0.60;;
49340;SDS011;35209;51.050;13.678;2023-04-01T00:44:19;1.98;;;0.60;;
49340;SDS011;35209;51.050;13.678;2023-04-01T00:49:29;2.53;;;0.70;;
49340;SDS011;35209;51.050;13.678;2023-04-01T00:54:34;1.05;;;0.40;;
49340;SDS011;35209;51.050;13.678;2023-04-01T00:59:39;1.40;;;0.60;;
49340;SDS011;35209;51.050;13.678;2023-04-01T01:04:43;2.47;;;0.57;;
49340;SDS011;35209;51.050;13.678;2023-04-01T01:09:52;1.95;;;0.65;;
49340;SDS011;35209;51.050;13.678;2023-04-01T01:30:37;2.35;;;0.60;;
49340;SDS011;35209;51.050;13.678;2023-04-01T01:35:46;4.25;;;0.50;;
49340;SDS011;35209;51.050;13.678;2023-04-01T01:40:54;1.98;;;0.80;;
49340;SDS011;35209;51.050;13.678;2023-04-01T01:46:00;1.80;;;0.47;;
49340;SDS011;35209;51.050;13.678;2023-04-01T01:51:07;1.67;;;0.52;;
49340;SDS011;35209;51.050;13.678;2023-04-01T01:56:10;1.83;;;0.52;;
49340;SDS011;35209;51.050;13.678;2023-04-01T02:01:16;2.40;;;0.65;;
49340;SDS011;35209;51.050;13.678;2023-04-01T02:06:22;3.10;;;1.00;;
49340;SDS011;35209;51.050;13.678;2023-04-01T02:11:28;1.85;;;0.40;;
49340;SDS011;35209;51.050;13.678;2023-04-01T02:16:41;2.45;;;0.60;;
49340;SDS011;35209;51.050;13.678;2023-04-01T02:21:52;2.30;;;0.50;;
49340;SDS011;35209;51.050;13.678;2023-04-01T02:26:58;4.47;;;0.80;;
49340;SDS011;35209;51.050;13.678;2023-04-01T02:32:01;2.35;;;0.60;;
49340;SDS011;35209;51.050;13.678;2023-04-01T02:37:04;1.65;;;0.63;;
49340;SDS011;35209;51.050;13.678;2023-04-01T02:42:06;2.67;;;0.50;;
49340;SDS011;35209;51.050;13.678;2023-04-01T02:47:07;4.32;;;0.90;;
49340;SDS011;35209;51.050;13.678;2023-04-01T02:52:09;1.90;;;0.63;;
49340;SDS011;35209;51.050;13.678;2023-04-01T02:57:11;1.90;;;0.70;;
49340;SDS011;35209;51.050;13.678;2023-04-01T03:02:13;2.60;;;0.50;;
49340;SDS011;35209;51.050;13.678;2023-04-01T03:07:15;2.70;;;0.93;;
49340;SDS011;35209;51.050;13.678;2023-04-01T03:12:17;3.72;;;1.00;;
49340;SDS011;35209;51.050;13.678;2023-04-01T03:17:24;2.20;;;0.70;;
49340;SDS011;35209;51.050;13.678;2023-04-01T03:22:27;1.30;;;0.45;;
49340;SDS011;35209;51.050;13.678;2023-04-01T03:27:29;5.43;;;1.00;;
49340;SDS011;35209;51.050;13.678;2023-04-01T03:32:31;1.67;;;0.75;;
49340;SDS011;35209;51.050;13.678;2023-04-01T03:37:33;3.28;;;0.93;;
49340;SDS011;35209;51.050;13.678;2023-04-01T03:42:35;2.95;;;0.80;;
49340;SDS011;35209;51.050;13.678;2023-04-01T03:47:37;2.20;;;0.60;;
49340;SDS011;35209;51.050;13.678;2023-04-01T03:52:39;3.03;;;0.90;;
49340;SDS011;35209;51.050;13.678;2023-04-01T03:57:41;2.05;;;0.68;;
49340;SDS011;35209;51.050;13.678;2023-04-01T04:02:50;2.80;;;0.80;;
49340;SDS011;35209;51.050;13.678;2023-04-01T04:07:58;3.97;;;0.90;;
49340;SDS011;35209;51.050;13.678;2023-04-01T04:13:01;2.38;;;0.60;;
49340;SDS011;35209;51.050;13.678;2023-04-01T04:18:04;2.03;;;0.80;;
49340;SDS011;35209;51.050;13.678;2023-04-01T04:23:06;1.58;;;0.50;;
49340;SDS011;35209;51.050;13.678;2023-04-01T04:28:09;1.67;;;0.80;;
49340;SDS011;35209;51.050;13.678;2023-04-01T04:33:11;2.05;;;0.65;;
49340;SDS011;35209;51.050;13.678;2023-04-01T04:38:12;3.72;;;0.95;;
49340;SDS011;35209;51.050;13.678;2023-04-01T04:43:15;2.28;;;0.65;;
49340;SDS011;35209;51.050;13.678;2023-04-01T04:48:18;3.97;;;0.70;;
49340;SDS011;35209;51.050;13.678;2023-04-01T04:53:22;2.55;;;0.57;;
49340;SDS011;35209;51.050;13.678;2023-04-01T04:58:24;1.48;;;0.65;;
49340;SDS011;35209;51.050;13.678;2023-04-01T05:03:26;2.38;;;0.50;;
49340;SDS011;35209;51.050;13.678;2023-04-01T05:08:28;2.78;;;0.80;;
49340;SDS011;35209;51.050;13.678;2023-04-01T05:13:31;1.65;;;0.60;;
49340;SDS011;35209;51.050;13.678;2023-04-01T05:18:33;3.60;;;0.68;;
49340;SDS011;35209;51.050;13.678;2023-04-01T05:23:35;3.63;;;0.98;;
49340;SDS011;35209;51.050;13.678;2023-04-01T05:28:40;2.45;;;1.00;;
49340;SDS011;35209;51.050;13.678;2023-04-01T05:33:42;5.28;;;1.05;;
49340;SDS011;35209;51.050;13.678;2023-04-01T05:38:44;1.27;;;0.60;;
49340;SDS011;35209;51.050;13.678;2023-04-01T05:43:47;2.35;;;0.73;;
49340;SDS011;35209;51.050;13.678;2023-04-01T05:49:19;3.17;;;0.77;;
49340;SDS011;35209;51.050;13.678;2023-04-01T05:54:21;3.17;;;0.68;;
49340;SDS011;35209;51.050;13.678;2023-04-01T05:59:24;2.70;;;0.73;;
49340;SDS011;35209;51.050;13.678;2023-04-01T06:04:26;3.58;;;0.82;;
49340;SDS011;35209;51.050;13.678;2023-04-01T06:09:34;2.45;;;0.65;;
49340;SDS011;35209;51.050;13.678;2023-04-01T06:58:11;3.90;;;0.70;;
49340;SDS011;35209;51.050;13.678;2023-04-01T07:08:40;1.17;;;0.52;;
49340;SDS011;35209;51.050;13.678;2023-04-01T07:13:53;3.75;;;0.50;;
49340;SDS011;35209;51.050;13.678;2023-04-01T07:19:05;1.60;;;0.50;;
49340;SDS011;35209;51.050;13.678;2023-04-01T07:24:29;2.38;;;0.70;;
49340;SDS011;35209;51.050;13.678;2023-04-01T07:29:38;1.38;;;0.50;;
49340;SDS011;35209;51.050;13.678;2023-04-01T07:34:50;2.20;;;0.50;;
49340;SDS011;35209;51.050;13.678;2023-04-01T07:51:07;2.42;;;0.60;;
49340;SDS011;35209;51.050;13.678;2023-04-01T08:02:21;1.35;;;0.50;;
49340;SDS011;35209;51.050;13.678;2023-04-01T08:07:40;2.42;;;0.50;;
49340;SDS011;35209;51.050;13.678;2023-04-01T08:23:57;1.50;;;0.50;;
49340;SDS011;35209;51.050;13.678;2023-04-01T08:29:12;2.13;;;0.60;;
49340;SDS011;35209;51.050;13.678;2023-04-01T08:34:27;2.25;;;0.70;;
49340;SDS011;35209;51.050;13.678;2023-04-01T08:39:37;1.33;;;0.45;;
49340;SDS011;35209;51.050;13.678;2023-04-01T08:56:06;0.65;;;0.30;;
49340;SDS011;35209;51.050;13.678;2023-04-01T09:07:29;1.65;;;0.47;;
49340;SDS011;35209;51.050;13.678;2023-04-01T09:12:48;2.45;;;0.60;;
49340;SDS011;35209;51.050;13.678;2023-04-01T09:29:00;1.77;;;0.52;;
49340;SDS011;35209;51.050;13.678;2023-04-01T09:40:24;1.48;;;0.40;;
49340;SDS011;35209;51.050;13.678;2023-04-01T10:12:47;3.42;;;0.60;;
49340;SDS011;35209;51.050;13.678;2023-04-01T11:02:12;1.30;;;0.40;;
49340;SDS011;35209;51.050;13.678;2023-04-01T11:18:37;0.88;;;0.60;;
49340;SDS011;35209;51.050;13.678;2023-04-01T11:40:01;1.15;;;0.30;;
49340;SDS011;35209;51.050;13.678;2023-04-01T11:45:58;0.93;;;0.32;;
49340;SDS011;35209;51.050;13.678;2023-04-01T11:56:27;0.35;;;0.30;;
49340;SDS011;35209;51.050;13.678;2023-04-01T12:02:15;1.75;;;1.05;;
49340;SDS011;35209;51.050;13.678;2023-04-01T12:17:36;2.17;;;1.00;;
49340;SDS011;35209;51.050;13.678;2023-04-01T12:28:15;1.23;;;0.45;;
49340;SDS011;35209;51.050;13.678;2023-04-01T12:43:46;1.50;;;0.90;;
49340;SDS011;35209;51.050;13.678;2023-04-01T12:59:17;1.05;;;0.57;;
49340;SDS011;35209;51.050;13.678;2023-04-01T13:04:44;0.55;;;0.28;;
49340;SDS011;35209;51.050;13.678;2023-04-01T13:10:00;0.75;;;0.50;;
49340;SDS011;35209;51.050;13.678;2023-04-01T13:15:16;4.35;;;2.53;;
49340;SDS011;35209;51.050;13.678;2023-04-01T13:20:37;3.25;;;2.05;;
49340;SDS011;35209;51.050;13.678;2023-04-01T13:42:38;1.48;;;0.17;;
49340;SDS011;35209;51.050;13.678;2023-04-01T13:48:29;1.45;;;0.30;;
49340;SDS011;35209;51.050;13.678;2023-04-01T14:09:29;0.45;;;0.20;;
49340;SDS011;35209;51.050;13.678;2023-04-01T14:41:47;0.75;;;0.68;;
49340;SDS011;35209;51.050;13.678;2023-04-01T14:52:36;0.47;;;0.20;;
49340;SDS011;35209;51.050;13.678;2023-04-01T14:57:42;1.08;;;0.77;;
49340;SDS011;35209;51.050;13.678;2023-04-01T15:19:14;0.40;;;0.30;;
49340;SDS011;35209;51.050;13.678;2023-04-01T15:24:24;0.43;;;0.20;;
49340;SDS011;35209;51.050;13.678;2023-04-01T15:40:17;0.35;;;0.32;;
49340;SDS011;35209;51.050;13.678;2023-04-01T16:06:40;0.55;;;0.55;;
49340;SDS011;35209;51.050;13.678;2023-04-01T16:28:12;2.13;;;1.40;;
49340;SDS011;35209;51.050;13.678;2023-04-01T16:38:50;1.52;;;1.10;;
49340;SDS011;35209;51.050;13.678;2023-04-01T16:43:59;1.83;;;1.70;;
49340;SDS011;35209;51.050;13.678;2023-04-01T16:49:23;0.85;;;0.80;;
49340;SDS011;35209;51.050;13.678;2023-04-01T16:54:39;1.92;;;1.10;;
49340;SDS011;35209;51.050;13.678;2023-04-01T16:59:47;0.88;;;0.60;;
49340;SDS011;35209;51.050;13.678;2023-04-01T17:05:12;0.40;;;0.40;;
49340;SDS011;35209;51.050;13.678;2023-04-01T17:20:56;1.08;;;0.60;;
49340;SDS011;35209;51.050;13.678;2023-04-01T17:41:47;1.83;;;1.00;;
49340;SDS011;35209;51.050;13.678;2023-04-01T17:57:46;7.03;;;3.35;;
49340;SDS011;35209;51.050;13.678;2023-04-01T18:02:57;1.10;;;0.85;;
49340;SDS011;35209;51.050;13.678;2023-04-01T18:18:40;1.70;;;1.58;;
49340;SDS011;35209;51.050;13.678;2023-04-01T18:29:26;2.22;;;1.23;;
49340;SDS011;35209;51.050;13.678;2023-04-01T18:45:27;6.22;;;5.30;;
49340;SDS011;35209;51.050;13.678;2023-04-01T18:50:58;7.40;;;6.70;;
49340;SDS011;35209;51.050;13.678;2023-04-01T18:56:11;8.00;;;7.28;;
49340;SDS011;35209;51.050;13.678;2023-04-01T19:06:56;10.32;;;9.43;;
49340;SDS011;35209;51.050;13.678;2023-04-01T19:12:02;9.20;;;8.30;;
49340;SDS011;35209;51.050;13.678;2023-04-01T19:17:43;11.05;;;10.05;;
49340;SDS011;35209;51.050;13.678;2023-04-01T19:34:09;7.85;;;7.13;;
49340;SDS011;35209;51.050;13.678;2023-04-01T19:44:46;4.57;;;4.18;;
49340;SDS011;35209;51.050;13.678;2023-04-01T20:00:58;2.78;;;2.30;;
49340;SDS011;35209;51.050;13.678;2023-04-01T20:06:04;2.90;;;1.85;;
49340;SDS011;35209;51.050;13.678;2023-04-01T20:16:23;2.92;;;1.77;;
49340;SDS011;35209;51.050;13.678;2023-04-01T20:21:48;2.63;;;2.27;;
49340;SDS011;35209;51.050;13.678;2023-04-01T20:27:14;2.65;;;1.90;;
49340;SDS011;35209;51.050;13.678;2023-04-01T20:32:40;3.50;;;1.67;;
49340;SDS011;35209;51.050;13.678;2023-04-01T20:37:56;2.10;;;1.85;;
49340;SDS011;35209;51.050;13.678;2023-04-01T20:53:53;3.03;;;2.22;;
49340;SDS011;35209;51.050;13.678;2023-04-01T21:10:08;1.63;;;1.52;;
49340;SDS011;35209;51.050;13.678;2023-04-01T21:42:49;2.08;;;1.98;;
49340;SDS011;35209;51.050;13.678;2023-04-01T21:48:11;2.50;;;2.30;;
49340;SDS011;35209;51.050;13.678;2023-04-01T22:14:53;3.22;;;3.03;;
49340;SDS011;35209;51.050;13.678;2023-04-01T22:20:29;3.05;;;2.60;;
49340;SDS011;35209;51.050;13.678;2023-04-01T22:30:42;2.97;;;2.78;;
49340;SDS011;35209;51.050;13.678;2023-04-01T22:35:56;3.10;;;2.85;;
49340;SDS011;35209;51.050;13.678;2023-04-01T22:41:08;4.10;;;3.00;;
49340;SDS011;35209;51.050;13.678;2023-04-01T22:46:36;3.22;;;2.95;;
49340;SDS011;35209;51.050;13.678;2023-04-01T22:51:57;3.40;;;3.20;;
49340;SDS011;35209;51.050;13.678;2023-04-01T23:03:06;5.20;;;4.80;;
49340;SDS011;35209;51.050;13.678;2023-04-01T23:13:41;5.80;;;5.40;;
49340;SDS011;35209;51.050;13.678;2023-04-01T23:18:54;5.53;;;5.15;;
49340;SDS011;35209;51.050;13.678;2023-04-01T23:29:31;5.15;;;4.75;;
49340;SDS011;35209;51.050;13.678;2023-04-01T23:34:37;3.90;;;3.60;;
49340;SDS011;35209;51.050;13.678;2023-04-01T23:39:39;3.50;;;3.30;;
49340;SDS011;35209;51.050;13.678;2023-04-01T23:44:45;3.97;;;3.67;;
49340;SDS011;35209;51.050;13.678;2023-04-01T23:49:49;3.28;;;3.08;;
49340;SDS011;35209;51.050;13.678;2023-04-01T23:54:58;4.68;;;4.38;;
